Time;durP1;ratioP1;P1;durP2;ratioP2;P2;SDS_P1;SDS_P2;PMS_P1;PMS_P2;Temp;Humidity;BMP_temperature;BMP_pressure;BME280_temperature;BME280_humidity;BME280_pressure;Samples;Min_cycle;Max_cycle;Signal;HPM_P1;HPM_P2
2023/06/13 00:02:16;;;;;;;4.97;4.63;;;19.30;76.60;;;;;;5080589;28;20489;-76
2023/06/13 00:07:57;;;;;;;5.70;5.20;;;19.10;78.00;;;;;;5015603;28;21071;-74
2023/06/13 00:10:36;;;;;;;5.40;4.90;;;19.10;77.80;;;;;;5072123;28;20450;-76
2023/06/13 00:13:17;;;;;;;5.50;5.00;;;19.20;78.30;;;;;;5079526;28;20474;-75
2023/06/13 00:16:03;;;;;;;5.60;5.13;;;19.10;78.50;;;;;;5083381;28;20455;-75
2023/06/13 00:21:35;;;;;;;5.90;5.40;;;19.00;79.40;;;;;;5080249;28;20491;-75
2023/06/13 00:24:10;;;;;;;5.80;5.20;;;18.70;79.70;;;;;;5089046;28;20454;-75
2023/06/13 00:26:54;;;;;;;5.30;4.90;;;18.90;80.50;;;;;;5089564;28;20481;-75
2023/06/13 00:29:30;;;;;;;5.20;4.73;;;18.90;80.50;;;;;;5089196;28;20454;-75
2023/06/13 00:31:59;;;;;;;6.23;5.30;;;18.80;80.70;;;;;;5086596;28;20985;-75
2023/06/13 00:34:31;;;;;;;5.20;4.60;;;18.80;81.10;;;;;;5081144;28;20475;-75
2023/06/13 00:37:42;;;;;;;5.70;5.20;;;18.70;81.40;;;;;;5081251;28;20451;-75
2023/06/13 00:40:24;;;;;;;5.70;5.30;;;18.60;81.70;;;;;;5076654;28;20882;-74
2023/06/13 00:43:46;;;;;;;;;;;;;;;;;;;;;
2023/06/13 00:49:02;;;;;;;5.87;5.27;;;18.50;82.20;;;;;;5077760;28;20947;-75
2023/06/13 00:51:36;;;;;;;5.60;5.20;;;18.50;83.10;;;;;;5096005;28;20459;-75
2023/06/13 00:54:16;;;;;;;6.00;5.50;;;18.50;83.30;;;;;;5100032;28;20442;-75
2023/06/13 00:56:53;;;;;;;5.50;5.10;;;18.50;84.20;;;;;;5101609;28;20481;-74
2023/06/13 00:59:25;;;;;;;5.87;5.37;;;18.40;84.90;;;;;;5102533;28;20793;-75
2023/06/13 01:01:54;;;;;;;5.93;5.47;;;18.30;85.50;;;;;;5101407;28;20507;-77
2023/06/13 01:04:30;;;;;;;5.40;4.90;;;18.30;85.60;;;;;;5100282;28;20556;-75
2023/06/13 01:07:00;;;;;;;5.63;5.13;;;18.20;85.90;;;;;;5101669;28;20944;-75
2023/06/13 01:09:28;;;;;;;5.97;5.57;;;18.20;86.30;;;;;;5101203;28;20485;-75
2023/06/13 01:12:13;;;;;;;5.93;5.17;;;18.20;86.80;;;;;;5099698;28;20578;-74
2023/06/13 01:14:51;;;;;;;7.83;5.70;;;18.10;87.20;;;;;;5098891;28;20815;-75
2023/06/13 01:17:40;;;;;;;5.70;5.20;;;18.10;88.00;;;;;;5099805;28;20492;-76
2023/06/13 01:20:13;;;;;;;6.50;6.00;;;18.10;88.50;;;;;;5105714;28;20520;-75
2023/06/13 01:22:52;;;;;;;5.13;4.73;;;18.00;89.50;;;;;;5118860;28;20976;-75
2023/06/13 01:25:43;;;;;;;6.63;5.43;;;18.00;90.00;;;;;;5118538;28;20449;-75
2023/06/13 01:28:15;;;;;;;5.37;4.90;;;17.90;89.90;;;;;;5118800;28;20433;-75
2023/06/13 01:30:48;;;;;;;5.30;4.80;;;17.90;90.30;;;;;;5119070;28;20462;-74
2023/06/13 01:33:42;;;;;;;5.00;4.60;;;17.80;90.50;;;;;;5119626;28;20453;-75
2023/06/13 01:36:45;;;;;;;6.20;5.60;;;17.80;90.80;;;;;;5120505;28;20462;-74
2023/06/13 01:39:20;;;;;;;4.90;4.50;;;17.80;91.10;;;;;;5120313;28;20473;-74
2023/06/13 01:41:55;;;;;;;6.43;5.70;;;17.70;91.30;;;;;;5120118;28;20492;-75
2023/06/13 01:44:35;;;;;;;5.53;5.13;;;17.70;91.60;;;;;;5120470;28;20447;-75
2023/06/13 01:47:15;;;;;;;4.80;4.50;;;17.70;91.90;;;;;;5119321;28;20509;-75
2023/06/13 01:50:06;;;;;;;5.30;4.90;;;17.60;92.50;;;;;;5120577;28;20506;-76
2023/06/13 01:52:56;;;;;;;5.67;5.27;;;17.60;93.00;;;;;;5119746;28;20544;-74
2023/06/13 01:55:42;;;;;;;6.00;5.50;;;17.40;92.80;;;;;;5120402;28;20453;-74
2023/06/13 01:58:26;;;;;;;5.73;5.30;;;17.50;93.20;;;;;;5119991;28;20454;-74
2023/06/13 02:01:08;;;;;;;5.30;4.80;;;17.40;93.40;;;;;;5119938;28;20492;-74
2023/06/13 02:03:56;;;;;;;6.43;5.17;;;17.30;93.80;;;;;;5118751;28;20453;-74
2023/06/13 02:06:33;;;;;;;5.00;4.60;;;17.30;94.20;;;;;;5119391;28;20439;-75
2023/06/13 02:09:05;;;;;;;5.13;4.63;;;17.30;94.50;;;;;;5118648;28;20984;-74
2023/06/13 02:11:38;;;;;;;6.17;5.50;;;17.20;95.00;;;;;;5117052;28;20531;-75
2023/06/13 02:14:08;;;;;;;6.90;4.97;;;17.20;95.10;;;;;;5119689;28;20482;-75
2023/06/13 02:16:48;;;;;;;5.47;4.97;;;17.20;95.30;;;;;;5123845;28;20502;-74
2023/06/13 02:19:22;;;;;;;5.83;5.40;;;17.20;95.60;;;;;;5119621;28;20453;-75
2023/06/13 02:21:50;;;;;;;5.20;4.73;;;17.30;95.70;;;;;;5117987;28;20510;-75
2023/06/13 02:24:27;;;;;;;5.90;5.30;;;17.20;95.70;;;;;;5119605;28;20491;-76
2023/06/13 02:26:54;;;;;;;5.20;4.80;;;17.20;96.00;;;;;;5118481;28;20484;-77
2023/06/13 02:29:33;;;;;;;5.20;4.70;;;17.20;96.20;;;;;;5116582;28;20818;-74
2023/06/13 02:32:15;;;;;;;5.70;5.20;;;17.20;96.20;;;;;;5116158;28;20475;-76
2023/06/13 02:35:09;;;;;;;5.77;5.27;;;17.20;97.30;;;;;;5113575;28;20453;-75
2023/06/13 02:37:41;;;;;;;5.50;5.10;;;17.10;97.30;;;;;;5112274;28;20487;-74
2023/06/13 02:40:11;;;;;;;6.60;5.37;;;17.00;98.30;;;;;;5117942;28;20452;-75
2023/06/13 02:42:41;;;;;;;5.47;4.97;;;17.00;98.60;;;;;;5121221;28;20485;-74
2023/06/13 02:45:10;;;;;;;5.23;4.83;;;17.00;98.70;;;;;;5121016;28;20441;-75
2023/06/13 02:47:40;;;;;;;5.93;5.47;;;16.90;99.00;;;;;;5119617;28;20535;-75
2023/06/13 02:50:08;;;;;;;5.63;5.13;;;16.80;99.30;;;;;;5119621;28;20564;-75
2023/06/13 02:52:39;;;;;;;5.27;4.77;;;16.70;99.80;;;;;;5118930;28;20490;-75
2023/06/13 02:55:14;;;;;;;7.00;4.80;;;16.70;99.90;;;;;;5118962;28;20445;-75
2023/06/13 02:57:45;;;;;;;5.57;5.03;;;16.70;99.90;;;;;;5119909;28;20437;-74
2023/06/13 03:00:21;;;;;;;5.53;5.13;;;16.60;99.90;;;;;;5121534;28;20421;-74
2023/06/13 03:03:03;;;;;;;5.80;5.27;;;16.60;99.90;;;;;;5123069;28;20527;-75
2023/06/13 03:05:42;;;;;;;5.70;5.20;;;16.50;99.90;;;;;;5123238;28;20441;-75
2023/06/13 03:08:11;;;;;;;5.80;5.30;;;16.50;99.90;;;;;;5123190;28;20529;-74
2023/06/13 03:10:40;;;;;;;5.83;5.33;;;16.40;99.90;;;;;;5123124;28;20508;-74
2023/06/13 03:13:08;;;;;;;5.00;4.60;;;16.30;99.90;;;;;;5122765;28;20523;-74
2023/06/13 03:15:45;;;;;;;8.67;5.47;;;16.30;99.90;;;;;;5124083;28;20453;-75
2023/06/13 03:18:15;;;;;;;5.70;5.27;;;16.20;99.90;;;;;;5121036;28;20463;-74
2023/06/13 03:20:52;;;;;;;5.33;4.90;;;16.20;99.90;;;;;;5107925;28;20912;-74
2023/06/13 03:23:23;;;;;;;8.03;5.33;;;16.20;99.90;;;;;;5099773;28;20457;-75
2023/06/13 03:25:51;;;;;;;7.30;5.70;;;16.20;99.90;;;;;;5098291;28;20448;-75
2023/06/13 03:28:20;;;;;;;6.20;5.60;;;16.10;99.90;;;;;;5100476;28;20483;-75
2023/06/13 03:31:00;;;;;;;6.10;5.60;;;16.20;99.90;;;;;;5101226;28;20449;-74
2023/06/13 03:33:36;;;;;;;6.20;4.73;;;16.10;99.90;;;;;;5102336;28;20474;-74
2023/06/13 03:36:03;;;;;;;6.30;5.10;;;16.10;99.90;;;;;;5100730;28;20519;-75
2023/06/13 03:38:31;;;;;;;6.07;5.53;;;16.10;99.90;;;;;;5101438;28;20561;-74
2023/06/13 03:41:02;;;;;;;7.40;5.13;;;16.10;99.90;;;;;;5100970;28;20457;-75
2023/06/13 03:43:30;;;;;;;5.47;4.97;;;16.10;99.90;;;;;;5101096;28;20415;-75
2023/06/13 03:45:58;;;;;;;5.43;5.00;;;16.10;99.90;;;;;;5100810;28;20449;-74
2023/06/13 03:48:32;;;;;;;5.57;5.13;;;16.10;99.90;;;;;;5100581;28;20503;-76
2023/06/13 03:51:08;;;;;;;6.20;5.73;;;16.10;99.90;;;;;;5115297;28;20432;-74
2023/06/13 03:54:07;;;;;;;4.93;4.60;;;16.10;99.90;;;;;;5114823;28;20456;-74
2023/06/13 03:56:44;;;;;;;6.80;5.00;;;16.20;99.90;;;;;;5108105;28;20534;-75
2023/06/13 03:59:15;;;;;;;5.60;5.13;;;16.20;99.90;;;;;;5108247;28;20441;-76
2023/06/13 04:01:54;;;;;;;4.80;4.40;;;16.20;99.90;;;;;;5099744;28;20486;-76
2023/06/13 04:04:37;;;;;;;5.23;4.83;;;16.20;99.90;;;;;;5098845;28;20457;-75
2023/06/13 04:07:15;;;;;;;5.83;5.23;;;16.10;99.90;;;;;;5099780;28;20586;-76
2023/06/13 04:09:46;;;;;;;5.47;4.97;;;16.00;99.90;;;;;;5103891;28;20453;-75
2023/06/13 04:12:22;;;;;;;5.83;5.33;;;16.00;99.90;;;;;;5112646;28;20516;-74
2023/06/13 04:14:53;;;;;;;6.33;4.83;;;16.10;99.90;;;;;;5109264;28;20441;-75
2023/06/13 04:17:25;;;;;;;5.30;4.80;;;16.10;99.90;;;;;;5112297;28;20450;-74
2023/06/13 04:19:54;;;;;;;5.30;4.90;;;16.20;99.90;;;;;;5107458;28;20527;-75
2023/06/13 04:22:37;;;;;;;6.67;4.53;;;16.20;99.90;;;;;;5107028;28;20509;-75
2023/06/13 04:25:15;;;;;;;4.90;4.50;;;16.20;99.90;;;;;;5103661;28;20445;-74
2023/06/13 04:27:48;;;;;;;5.00;4.60;;;16.30;99.90;;;;;;5104077;28;20457;-76
2023/06/13 04:30:20;;;;;;;5.50;5.00;;;16.30;99.90;;;;;;5104786;28;20471;-74
2023/06/13 04:32:56;;;;;;;5.10;4.63;;;16.40;99.90;;;;;;5104353;28;20464;-75
2023/06/13 04:35:44;;;;;;;5.40;5.00;;;16.50;99.90;;;;;;5103836;28;20430;-75
2023/06/13 04:38:24;;;;;;;4.97;4.57;;;16.50;99.90;;;;;;5103688;28;20425;-76
2023/06/13 04:40:54;;;;;;;4.50;4.10;;;16.60;99.90;;;;;;5104495;28;20506;-75
2023/06/13 04:43:35;;;;;;;4.83;4.40;;;16.70;99.90;;;;;;5104199;28;20511;-74
2023/06/13 04:46:05;;;;;;;5.40;4.90;;;16.70;99.90;;;;;;5102399;28;20521;-76
2023/06/13 04:48:35;;;;;;;5.83;4.33;;;16.80;99.90;;;;;;5100329;28;20456;-76
2023/06/13 04:51:08;;;;;;;4.13;3.83;;;16.80;99.90;;;;;;5100496;28;20453;-75
2023/06/13 04:53:38;;;;;;;5.57;4.00;;;16.90;99.90;;;;;;5100575;28;20445;-74
2023/06/13 04:56:10;;;;;;;4.50;4.10;;;16.90;99.90;;;;;;5099675;28;20522;-74
2023/06/13 04:58:47;;;;;;;8.33;4.80;;;17.00;99.90;;;;;;5102211;28;20454;-75
2023/06/13 05:01:18;;;;;;;4.80;4.30;;;17.00;99.90;;;;;;5099800;28;20449;-76
2023/06/13 05:04:03;;;;;;;;;;;;;;;;;;;;;
2023/06/13 05:07:15;;;;;;;9.17;8.33;;;17.10;99.90;;;;;;5053608;28;21060;-74
2023/06/13 05:10:28;;;;;;;5.67;4.53;;;17.20;99.90;;;;;;5106638;28;20478;-75
2023/06/13 05:13:01;;;;;;;5.53;4.30;;;17.30;99.90;;;;;;5086026;28;20453;-74
2023/06/13 05:15:36;;;;;;;5.50;5.00;;;17.40;99.90;;;;;;5100779;28;20496;-75
2023/06/13 05:18:12;;;;;;;4.60;4.20;;;17.50;99.90;;;;;;5100895;28;20839;-75
2023/06/13 05:20:43;;;;;;;4.70;4.30;;;17.50;99.90;;;;;;5100636;28;20425;-74
2023/06/13 05:23:16;;;;;;;4.20;3.90;;;17.50;99.90;;;;;;5101241;28;20485;-75
2023/06/13 05:25:50;;;;;;;3.97;3.70;;;17.70;99.90;;;;;;5101157;28;20454;-75
2023/06/13 05:28:32;;;;;;;4.70;4.30;;;17.70;99.90;;;;;;5100323;28;20440;-76
2023/06/13 05:31:04;;;;;;;4.47;4.10;;;17.80;99.90;;;;;;5101119;28;20476;-77
2023/06/13 05:33:37;;;;;;;7.30;4.00;;;17.90;99.90;;;;;;5098754;28;20465;-75
2023/06/13 05:36:09;;;;;;;4.90;4.47;;;17.90;99.90;;;;;;5099412;28;20526;-75
2023/06/13 05:38:37;;;;;;;4.07;3.77;;;18.00;99.90;;;;;;5098919;28;20487;-76
2023/06/13 05:41:06;;;;;;;4.17;3.87;;;18.10;99.90;;;;;;5099001;28;20458;-76
2023/06/13 05:43:36;;;;;;;5.60;4.20;;;18.20;99.90;;;;;;5099108;28;20501;-76
2023/06/13 05:46:08;;;;;;;4.63;4.23;;;18.30;99.90;;;;;;5095114;28;20958;-75
2023/06/13 05:48:37;;;;;;;4.43;4.03;;;18.30;99.90;;;;;;5096746;28;20457;-76
2023/06/13 05:51:05;;;;;;;5.40;4.27;;;18.40;99.80;;;;;;5097201;28;20549;-75
2023/06/13 05:53:33;;;;;;;3.50;3.20;;;18.30;99.70;;;;;;5096545;28;20447;-75
2023/06/13 05:56:01;;;;;;;3.97;3.67;;;18.40;98.40;;;;;;5098525;28;20430;-75
2023/06/13 05:58:31;;;;;;;5.33;4.13;;;18.60;98.60;;;;;;5095779;28;20454;-76
2023/06/13 06:01:03;;;;;;;6.33;4.80;;;18.70;98.80;;;;;;5096530;28;20535;-75
2023/06/13 06:03:31;;;;;;;4.33;3.93;;;18.70;98.10;;;;;;5096886;28;20538;-75
2023/06/13 06:06:07;;;;;;;6.77;3.97;;;18.70;97.40;;;;;;5095937;28;20548;-75
2023/06/13 06:08:36;;;;;;;4.37;3.97;;;18.80;96.90;;;;;;5094984;28;20457;-75
2023/06/13 06:11:15;;;;;;;7.13;4.30;;;18.90;96.50;;;;;;5094051;28;20465;-75
2023/06/13 06:13:57;;;;;;;7.53;4.20;;;19.00;96.50;;;;;;5095127;28;20959;-76
2023/06/13 06:16:30;;;;;;;4.87;4.40;;;19.20;96.80;;;;;;5097335;28;20460;-77
2023/06/13 06:18:58;;;;;;;5.40;4.53;;;19.00;96.70;;;;;;5098112;28;20449;-75
2023/06/13 06:21:26;;;;;;;4.33;4.03;;;19.10;96.50;;;;;;5115966;28;21041;-76
2023/06/13 06:23:58;;;;;;;4.33;3.77;;;19.10;95.70;;;;;;5117672;28;20526;-75
2023/06/13 06:26:26;;;;;;;4.13;3.73;;;19.10;95.60;;;;;;5116533;28;20450;-75
2023/06/13 06:28:55;;;;;;;6.33;3.90;;;19.30;95.20;;;;;;5116233;28;20503;-76
2023/06/13 06:31:27;;;;;;;4.50;4.10;;;19.30;95.30;;;;;;5115904;28;20465;-75
2023/06/13 06:34:01;;;;;;;5.27;3.93;;;19.30;95.00;;;;;;5114079;28;20540;-76
2023/06/13 06:36:55;;;;;;;5.50;3.60;;;19.30;93.20;;;;;;5097593;28;20516;-75
2023/06/13 06:39:45;;;;;;;4.70;4.30;;;19.40;92.60;;;;;;5096337;28;20530;-76
2023/06/13 06:42:26;;;;;;;7.27;3.93;;;19.40;91.50;;;;;;5097151;28;20480;-75
2023/06/13 06:45:13;;;;;;;3.93;3.63;;;19.10;91.90;;;;;;5100290;28;20449;-75
2023/06/13 06:51:28;;;;;;;7.83;4.40;;;19.70;90.30;;;;;;5098002;28;20504;-76
2023/06/13 06:54:07;;;;;;;4.20;3.90;;;19.70;88.80;;;;;;5099917;28;20451;-79
2023/06/13 06:59:28;;;;;;;4.03;3.33;;;19.90;88.20;;;;;;5099702;28;20452;-75
2023/06/13 07:02:34;;;;;;;5.50;4.13;;;19.90;87.30;;;;;;5101041;28;20445;-77
2023/06/13 07:11:30;;;;;;;4.57;4.13;;;20.20;86.60;;;;;;5065689;28;20486;-77
2023/06/13 07:14:06;;;;;;;4.27;3.47;;;20.30;84.90;;;;;;5099491;28;20515;-76
2023/06/13 07:16:48;;;;;;;5.23;3.87;;;20.30;83.30;;;;;;5099230;28;20503;-76
2023/06/13 07:22:29;;;;;;;5.93;3.67;;;20.30;82.10;;;;;;5077519;28;20465;-75
2023/06/13 07:28:52;;;;;;;;;;;;;;;;;;;;;
2023/06/13 07:34:58;;;;;;;3.63;3.30;;;20.60;80.00;;;;;;5061997;28;20512;-76
2023/06/13 07:37:35;;;;;;;4.30;4.00;;;20.60;80.80;;;;;;5079033;28;20456;-76
2023/06/13 07:40:14;;;;;;;4.70;4.20;;;20.70;80.40;;;;;;5079122;28;20466;-75
2023/06/13 07:42:58;;;;;;;4.27;3.97;;;20.80;79.90;;;;;;5079506;28;20486;-75
2023/06/13 07:48:36;;;;;;;5.93;3.93;;;20.90;78.60;;;;;;5081254;28;20949;-75
2023/06/13 07:51:41;;;;;;;;;;;;;;;;;;;;;
2023/06/13 07:54:49;;;;;;;7.47;3.77;;;20.90;76.50;;;;;;5082726;28;20423;-76
2023/06/13 07:57:33;;;;;;;4.10;3.60;;;21.10;76.20;;;;;;5083000;28;20457;-76
2023/06/13 08:00:17;;;;;;;3.80;3.50;;;21.20;75.00;;;;;;5085308;28;20460;-75
2023/06/13 08:03:06;;;;;;;;;;;;;;;;;;;;;
2023/06/13 08:05:52;;;;;;;4.13;3.87;;;21.30;75.00;;;;;;5088052;28;20511;-75
2023/06/13 08:08:32;;;;;;;7.40;4.43;;;21.40;75.30;;;;;;5087199;28;20457;-76
2023/06/13 08:11:04;;;;;;;6.87;5.33;;;21.60;76.10;;;;;;5092644;28;20439;-76
2023/06/13 08:13:32;;;;;;;3.97;3.67;;;21.50;77.50;;;;;;5090852;28;20500;-78
2023/06/13 08:16:01;;;;;;;4.33;3.60;;;21.40;76.70;;;;;;5091747;28;20432;-77
2023/06/13 08:18:32;;;;;;;6.10;4.10;;;21.40;76.90;;;;;;5090889;28;20481;-76
2023/06/13 08:21:04;;;;;;;4.00;3.80;;;21.60;77.30;;;;;;5090496;28;20442;-76
2023/06/13 08:23:35;;;;;;;7.13;3.90;;;21.50;76.90;;;;;;5089208;28;20475;-77
2023/06/13 08:26:03;;;;;;;4.20;3.93;;;21.50;75.70;;;;;;5088080;28;20455;-77
2023/06/13 08:28:36;;;;;;;5.67;3.50;;;21.60;76.00;;;;;;5087357;28;20454;-76
2023/06/13 08:31:05;;;;;;;3.83;3.63;;;21.60;75.40;;;;;;5086268;28;20470;-77
2023/06/13 08:33:35;;;;;;;4.50;4.10;;;21.70;76.40;;;;;;5085345;28;20447;-75
2023/06/13 08:36:03;;;;;;;6.50;4.53;;;21.90;75.40;;;;;;5088003;28;20486;-76
2023/06/13 08:38:31;;;;;;;4.90;3.83;;;21.90;74.20;;;;;;5085283;28;20444;-77
2023/06/13 08:41:13;;;;;;;4.83;4.33;;;22.00;74.30;;;;;;5084160;28;20553;-75
2023/06/13 08:43:46;;;;;;;4.50;4.00;;;21.80;72.90;;;;;;5082911;28;20527;-76
2023/06/13 08:46:20;;;;;;;4.40;3.83;;;22.00;74.20;;;;;;5092491;28;20455;-75
2023/06/13 08:48:52;;;;;;;5.70;5.23;;;22.20;73.60;;;;;;5091449;28;20511;-77
2023/06/13 08:51:23;;;;;;;6.50;4.53;;;22.40;72.60;;;;;;5089994;28;20495;-76
2023/06/13 08:53:56;;;;;;;6.33;4.40;;;22.40;73.00;;;;;;5086628;28;20484;-77
2023/06/13 08:56:25;;;;;;;4.93;3.93;;;22.30;72.20;;;;;;5088214;28;20448;-75
2023/06/13 08:58:58;;;;;;;4.27;3.57;;;22.40;72.80;;;;;;5086024;28;20891;-76
2023/06/13 09:01:32;;;;;;;4.77;3.97;;;22.60;69.50;;;;;;5087513;28;20471;-76
2023/06/13 09:04:03;;;;;;;4.13;3.73;;;22.70;70.70;;;;;;5089889;28;20462;-76
2023/06/13 09:06:33;;;;;;;4.70;4.30;;;22.80;69.80;;;;;;5091044;28;21018;-76
2023/06/13 09:09:06;;;;;;;7.63;4.20;;;22.90;68.90;;;;;;5084748;28;20459;-75
2023/06/13 09:11:37;;;;;;;4.30;4.00;;;22.80;68.80;;;;;;5082864;28;20495;-74
2023/06/13 09:14:10;;;;;;;4.67;4.27;;;23.10;68.80;;;;;;5083790;28;20437;-77
2023/06/13 09:16:48;;;;;;;5.00;4.63;;;23.30;67.00;;;;;;5085296;28;20829;-75
2023/06/13 09:19:25;;;;;;;5.10;4.50;;;23.40;66.60;;;;;;5082827;28;20466;-76
2023/06/13 09:24:55;;;;;;;5.77;5.37;;;23.60;69.00;;;;;;5070224;28;20471;-76
2023/06/13 09:27:38;;;;;;;4.53;4.17;;;23.70;70.30;;;;;;5081087;28;20990;-77
2023/06/13 09:30:15;;;;;;;6.10;4.27;;;24.00;69.00;;;;;;5081466;28;20966;-76
2023/06/13 09:32:53;;;;;;;5.20;4.50;;;24.20;68.10;;;;;;5080821;28;20472;-77
2023/06/13 09:35:32;;;;;;;4.27;3.93;;;24.30;66.90;;;;;;5081443;28;20494;-76
2023/06/13 09:38:05;;;;;;;3.90;3.63;;;24.50;67.40;;;;;;5081431;28;20976;-76
2023/06/13 09:40:37;;;;;;;5.20;4.37;;;24.70;67.50;;;;;;5077533;28;20465;-75
2023/06/13 09:43:13;;;;;;;5.20;4.17;;;25.00;65.40;;;;;;5077038;28;20488;-76
2023/06/13 09:45:45;;;;;;;4.23;3.80;;;24.90;63.40;;;;;;5075368;28;20463;-76
2023/06/13 09:48:20;;;;;;;4.00;3.70;;;25.00;62.60;;;;;;5076235;28;20464;-76
2023/06/13 09:51:02;;;;;;;4.47;4.07;;;25.10;60.80;;;;;;5077087;28;20441;-76
2023/06/13 09:53:33;;;;;;;5.30;4.27;;;25.00;61.20;;;;;;5076713;28;20428;-75
2023/06/13 09:56:09;;;;;;;4.30;3.97;;;25.40;61.20;;;;;;5076377;28;20423;-75
2023/06/13 09:59:02;;;;;;;4.20;3.90;;;25.60;61.40;;;;;;5076124;28;20461;-76
2023/06/13 10:01:38;;;;;;;4.23;3.60;;;25.40;61.90;;;;;;5075975;28;20479;-76
2023/06/13 10:04:11;;;;;;;6.10;3.87;;;25.90;60.70;;;;;;5076390;28;20483;-76
2023/06/13 10:06:45;;;;;;;5.70;3.63;;;26.00;60.10;;;;;;5075524;28;20747;-75
2023/06/13 10:09:17;;;;;;;4.60;4.00;;;26.30;59.70;;;;;;5076096;28;20448;-75
2023/06/13 10:11:53;;;;;;;4.20;3.80;;;26.30;58.20;;;;;;5075316;28;20479;-77
2023/06/13 10:14:31;;;;;;;5.00;4.20;;;26.30;57.80;;;;;;5074146;28;20456;-75
2023/06/13 10:17:19;;;;;;;4.20;3.90;;;26.30;57.10;;;;;;5074144;28;20482;-76
2023/06/13 10:19:56;;;;;;;4.20;3.90;;;26.40;56.30;;;;;;5081522;28;20538;-75
2023/06/13 10:22:30;;;;;;;6.00;3.80;;;26.40;55.70;;;;;;5115033;28;20482;-77
2023/06/13 10:24:59;;;;;;;4.03;3.73;;;26.70;54.50;;;;;;5115906;28;20512;-76
2023/06/13 10:27:28;;;;;;;4.23;3.93;;;27.00;54.20;;;;;;5115733;28;20468;-76
2023/06/13 10:30:17;;;;;;;4.63;4.23;;;27.10;54.40;;;;;;5116134;28;20454;-76
2023/06/13 10:33:15;;;;;;;5.13;4.10;;;27.10;53.90;;;;;;5105908;28;20470;-76
2023/06/13 10:36:27;;;;;;;5.37;4.30;;;27.10;53.90;;;;;;5119893;28;20450;-77
2023/06/13 10:39:40;;;;;;;4.70;4.23;;;27.10;54.40;;;;;;5113356;28;20783;-75
2023/06/13 10:42:38;;;;;;;;;;;;;;;;;;;;;
2023/06/13 10:45:13;;;;;;;3.97;3.67;;;27.20;54.40;;;;;;5114998;28;20584;-76
2023/06/13 10:47:51;;;;;;;4.00;3.70;;;27.50;54.00;;;;;;5122641;28;20450;-76
2023/06/13 10:50:29;;;;;;;6.03;4.00;;;27.70;51.60;;;;;;5120297;28;20511;-77
2023/06/13 10:53:06;;;;;;;7.53;6.27;;;28.00;51.20;;;;;;5119428;28;20969;-76
2023/06/13 10:55:43;;;;;;;4.97;4.20;;;28.30;51.20;;;;;;5117754;28;20454;-76
2023/06/13 10:58:18;;;;;;;5.17;3.93;;;28.30;51.20;;;;;;5118091;28;20785;-76
2023/06/13 11:00:45;;;;;;;7.33;3.90;;;28.10;51.60;;;;;;5118208;28;20857;-76
2023/06/13 11:03:15;;;;;;;4.10;3.80;;;27.70;51.70;;;;;;5115520;28;20518;-76
2023/06/13 11:08:43;;;;;;;4.63;3.70;;;27.50;52.70;;;;;;5113795;28;20976;-76
2023/06/13 11:11:20;;;;;;;4.53;4.03;;;27.80;50.40;;;;;;5115256;28;20553;-77
2023/06/13 11:13:49;;;;;;;4.30;3.63;;;28.10;50.20;;;;;;5114511;28;20975;-77
2023/06/13 11:16:21;;;;;;;4.77;3.80;;;28.50;50.00;;;;;;5114455;28;20453;-78
2023/06/13 11:18:49;;;;;;;4.13;3.70;;;28.60;49.80;;;;;;5114514;28;20433;-77
2023/06/13 11:21:18;;;;;;;3.80;3.50;;;28.50;50.30;;;;;;5098701;28;20939;-74
2023/06/13 11:23:50;;;;;;;7.60;3.97;;;28.70;50.10;;;;;;5095495;28;20974;-75
2023/06/13 11:26:21;;;;;;;4.40;4.00;;;28.80;49.40;;;;;;5094937;28;20461;-77
2023/06/13 11:28:51;;;;;;;4.07;3.77;;;28.60;48.00;;;;;;5093244;28;20458;-76
2023/06/13 11:31:19;;;;;;;3.87;3.57;;;28.70;48.80;;;;;;5097247;28;20450;-76
2023/06/13 11:33:49;;;;;;;5.20;3.93;;;28.90;48.40;;;;;;5096952;28;21064;-76
2023/06/13 11:36:18;;;;;;;4.43;4.10;;;29.30;48.50;;;;;;5093732;28;20462;-75
2023/06/13 11:38:48;;;;;;;6.80;4.03;;;29.20;47.90;;;;;;5093114;28;20503;-77
2023/06/13 11:41:21;;;;;;;5.20;3.87;;;29.40;48.00;;;;;;5092428;28;20966;-76
2023/06/13 11:43:52;;;;;;;4.20;3.80;;;29.50;48.10;;;;;;5094679;28;20839;-75
2023/06/13 11:46:21;;;;;;;4.47;4.17;;;29.70;48.00;;;;;;5093715;28;20870;-75
2023/06/13 11:49:03;;;;;;;6.10;5.60;;;29.90;47.50;;;;;;5094762;28;20458;-77
2023/06/13 11:51:37;;;;;;;4.17;3.83;;;29.80;47.00;;;;;;5096983;28;20467;-76
2023/06/13 11:54:09;;;;;;;4.60;4.20;;;29.80;46.80;;;;;;5108813;28;20450;-77
2023/06/13 11:56:51;;;;;;;5.03;4.60;;;29.90;47.60;;;;;;5097447;28;20473;-76
2023/06/13 11:59:21;;;;;;;4.47;4.07;;;30.10;47.40;;;;;;5097148;28;20478;-76
2023/06/13 12:02:00;;;;;;;4.60;4.23;;;30.20;47.00;;;;;;5096152;28;20915;-77
2023/06/13 12:04:46;;;;;;;4.33;4.03;;;29.80;47.10;;;;;;5095010;28;20794;-77
2023/06/13 12:07:16;;;;;;;4.80;3.90;;;30.00;46.40;;;;;;5097618;28;20468;-75
2023/06/13 12:09:45;;;;;;;4.00;3.80;;;30.30;46.60;;;;;;5098483;28;20474;-77
2023/06/13 12:12:15;;;;;;;4.07;3.73;;;30.60;46.80;;;;;;5099702;28;20541;-77
2023/06/13 12:14:43;;;;;;;4.50;4.17;;;30.80;46.60;;;;;;5097366;28;20473;-76
2023/06/13 12:17:15;;;;;;;4.77;4.43;;;30.20;46.20;;;;;;5107874;28;20454;-75
2023/06/13 12:19:52;;;;;;;4.03;3.73;;;30.50;46.10;;;;;;5107915;28;20461;-74
2023/06/13 12:22:22;;;;;;;4.43;4.03;;;30.50;45.10;;;;;;5111929;28;20520;-75
2023/06/13 12:24:57;;;;;;;9.20;4.70;;;30.80;44.40;;;;;;5111064;28;20471;-75
2023/06/13 12:27:30;;;;;;;6.30;4.27;;;30.80;44.70;;;;;;5100641;28;20537;-75
2023/06/13 12:30:11;;;;;;;4.20;3.80;;;31.10;45.00;;;;;;5099866;28;20486;-76
2023/06/13 12:32:44;;;;;;;4.10;3.80;;;31.10;44.90;;;;;;5099001;28;20474;-76
2023/06/13 12:35:24;;;;;;;3.83;3.63;;;31.30;44.40;;;;;;5099727;28;20453;-75
2023/06/13 12:38:06;;;;;;;4.83;4.50;;;30.60;43.90;;;;;;5099610;28;20533;-76
2023/06/13 12:40:45;;;;;;;4.93;4.53;;;30.80;44.70;;;;;;5098368;28;20539;-76
2023/06/13 12:43:23;;;;;;;5.33;4.23;;;30.80;43.90;;;;;;5097407;28;20471;-76
2023/06/13 12:45:53;;;;;;;4.17;3.87;;;30.50;44.10;;;;;;5097583;28;20505;-76
2023/06/13 12:48:26;;;;;;;4.93;4.53;;;31.00;44.30;;;;;;5099069;28;20433;-77
2023/06/13 12:51:00;;;;;;;4.47;4.07;;;30.80;43.10;;;;;;5102005;28;20451;-77
2023/06/13 12:53:33;;;;;;;4.80;4.40;;;30.80;43.50;;;;;;5099822;28;20424;-75
2023/06/13 12:56:08;;;;;;;4.40;4.10;;;30.30;44.60;;;;;;5100803;28;20455;-78
2023/06/13 12:59:03;;;;;;;4.80;4.40;;;30.50;45.00;;;;;;5099016;28;21000;-75
2023/06/13 13:01:36;;;;;;;4.43;4.03;;;30.80;44.20;;;;;;5097444;28;20498;-77
2023/06/13 13:04:12;;;;;;;4.07;3.80;;;30.10;43.80;;;;;;5098324;28;20516;-76
2023/06/13 13:06:46;;;;;;;4.40;4.00;;;30.40;43.80;;;;;;5098051;28;20496;-76
2023/06/13 13:12:20;;;;;;;5.10;3.70;;;31.60;42.40;;;;;;5095609;28;20443;-76
2023/06/13 13:15:09;;;;;;;4.87;4.47;;;31.70;41.20;;;;;;5096560;28;20427;-76
2023/06/13 13:17:40;;;;;;;4.23;3.93;;;31.70;41.60;;;;;;5097902;28;20462;-77
2023/06/13 13:20:12;;;;;;;4.77;4.47;;;31.70;41.40;;;;;;5104546;28;20443;-75
2023/06/13 13:22:56;;;;;;;4.83;4.43;;;31.70;41.20;;;;;;5117518;28;20480;-77
2023/06/13 13:25:28;;;;;;;4.40;3.97;;;32.30;40.90;;;;;;5116473;28;20906;-77
2023/06/13 13:28:35;;;;;;;4.47;4.17;;;32.30;41.00;;;;;;5116919;28;20822;-76
2023/06/13 13:31:07;;;;;;;4.97;4.57;;;32.30;40.20;;;;;;5117763;28;20460;-76
2023/06/13 13:33:40;;;;;;;5.03;4.73;;;32.60;39.30;;;;;;5117307;28;20465;-76
2023/06/13 13:36:15;;;;;;;4.67;4.37;;;32.90;39.50;;;;;;5119247;28;20457;-77
2023/06/13 13:38:49;;;;;;;4.87;4.17;;;32.90;39.60;;;;;;5116715;28;20921;-76
2023/06/13 13:41:29;;;;;;;5.00;4.70;;;32.90;39.20;;;;;;5116875;28;20462;-77
2023/06/13 13:43:59;;;;;;;5.10;4.70;;;32.70;39.20;;;;;;5116424;28;20468;-75
2023/06/13 13:46:30;;;;;;;5.47;5.00;;;32.40;38.70;;;;;;5117054;28;20475;-76
2023/06/13 13:49:12;;;;;;;5.70;5.20;;;32.00;38.90;;;;;;5117384;28;20485;-76
2023/06/13 13:51:46;;;;;;;5.10;4.70;;;32.30;39.40;;;;;;5117455;28;20466;-76
2023/06/13 13:54:14;;;;;;;5.03;4.50;;;32.30;39.90;;;;;;5117450;28;20533;-75
2023/06/13 13:56:46;;;;;;;5.20;4.20;;;32.30;39.80;;;;;;5117165;28;20450;-76
2023/06/13 13:59:13;;;;;;;4.40;4.00;;;32.20;40.00;;;;;;5118361;28;20485;-76
2023/06/13 14:01:47;;;;;;;4.13;3.73;;;32.20;40.50;;;;;;5116456;28;20492;-76
2023/06/13 14:04:32;;;;;;;4.57;4.27;;;32.40;40.00;;;;;;5118297;28;20446;-76
2023/06/13 14:07:03;;;;;;;4.67;4.37;;;32.10;39.90;;;;;;5116739;28;20442;-77
2023/06/13 14:09:33;;;;;;;5.10;4.70;;;31.60;39.50;;;;;;5116933;28;20492;-76
2023/06/13 14:12:10;;;;;;;4.47;4.07;;;31.80;39.80;;;;;;5117453;28;20454;-76
2023/06/13 14:14:37;;;;;;;5.47;4.97;;;31.80;40.50;;;;;;5118512;28;20961;-77
2023/06/13 14:17:13;;;;;;;5.03;4.23;;;32.00;39.80;;;;;;5116677;28;20459;-78
2023/06/13 14:22:42;;;;;;;4.93;4.63;;;32.50;38.80;;;;;;5080063;28;20462;-77
2023/06/13 14:25:43;;;;;;;6.10;4.60;;;32.30;38.10;;;;;;5116545;28;20481;-77
2023/06/13 14:31:09;;;;;;;5.87;4.47;;;31.30;39.50;;;;;;5114163;28;20478;-77